Time;durP1;ratioP1;P1;durP2;ratioP2;P2;SDS_P1;SDS_P2;PMS_P1;PMS_P2;Temp;Humidity;BMP_temperature;BMP_pressure;BME280_temperature;BME280_humidity;BME280_pressure;Samples;Min_cycle;Max_cycle;Signal;HPM_P1;HPM_P2
2023/07/03 00:01:40;;;;;;;;;;;;;;;23.43;100.00;99166.63;5043702;28;19917;-86
2023/07/03 00:04:10;;;;;;;;;;;;;;;23.38;100.00;99157.59;5046342;28;20288;-87
2023/07/03 00:06:38;;;;;;;;;;;;;;;23.32;100.00;99158.53;5027673;28;19967;-87
2023/07/03 00:09:05;;;;;;;;;;;;;;;23.25;100.00;99156.78;5017184;28;19943;-88
2023/07/03 00:11:30;;;;;;;;;;;;;;;23.29;100.00;99157.13;5030127;28;19921;-89
2023/07/03 00:13:56;;;;;;;;;;;;;;;23.31;100.00;99151.50;5034440;28;20358;-86
2023/07/03 00:16:21;;;;;;;;;;;;;;;23.25;100.00;99150.59;5027120;28;20353;-89
2023/07/03 00:18:48;;;;;;;;;;;;;;;23.23;100.00;99156.19;5030962;28;19917;-87
2023/07/03 00:21:13;;;;;;;;;;;;;;;23.22;100.00;99154.53;5028447;28;20326;-87
2023/07/03 00:23:39;;;;;;;;;;;;;;;23.22;100.00;99149.16;5034024;28;20015;-85
2023/07/03 00:26:04;;;;;;;;;;;;;;;23.18;100.00;99153.38;5030638;28;20377;-86
2023/07/03 00:28:30;;;;;;;;;;;;;;;23.17;100.00;99150.91;5027488;28;19921;-87
2023/07/03 00:30:56;;;;;;;;;;;;;;;23.15;100.00;99153.03;5024702;28;20023;-87
2023/07/03 00:33:22;;;;;;;;;;;;;;;23.04;100.00;99151.97;5027134;28;20395;-86
2023/07/03 00:35:47;;;;;;;;;;;;;;;23.06;100.00;99147.19;5027347;28;20400;-87
2023/07/03 00:38:12;;;;;;;;;;;;;;;23.04;100.00;99151.97;5029590;28;19920;-87
2023/07/03 00:40:38;;;;;;;;;;;;;;;23.06;100.00;99149.88;5024813;28;19916;-87
2023/07/03 00:43:04;;;;;;;;;;;;;;;23.02;100.00;99159.47;5031730;28;20014;-87
2023/07/03 00:45:32;;;;;;;;;;;;;;;23.04;100.00;99156.53;5024812;28;19920;-87
2023/07/03 00:47:58;;;;;;;;;;;;;;;23.03;100.00;99161.09;5027968;28;19917;-86
2023/07/03 00:50:23;;;;;;;;;;;;;;;23.01;100.00;99157.81;5025405;28;20388;-86
2023/07/03 00:52:51;;;;;;;;;;;;;;;22.99;100.00;99151.84;5008080;28;19916;-87
2023/07/03 00:55:17;;;;;;;;;;;;;;;22.99;100.00;99154.53;5030772;28;19917;-87
2023/07/03 00:57:42;;;;;;;;;;;;;;;22.97;100.00;99153.97;5029453;28;19928;-85
2023/07/03 01:00:09;;;;;;;;;;;;;;;22.94;100.00;99149.03;5023862;28;19925;-87
2023/07/03 01:02:40;;;;;;;;;;;;;;;22.96;100.00;99149.63;5020053;28;19917;-86
2023/07/03 01:05:06;;;;;;;;;;;;;;;22.91;100.00;99135.25;5027905;28;20003;-86
2023/07/03 01:07:32;;;;;;;;;;;;;;;22.92;100.00;99143.06;5027958;28;20416;-86
2023/07/03 01:09:59;;;;;;;;;;;;;;;22.91;100.00;99141.44;5031181;28;19959;-87
2023/07/03 01:12:26;;;;;;;;;;;;;;;22.92;100.00;99135.00;5029110;28;19917;-87
2023/07/03 01:14:53;;;;;;;;;;;;;;;22.91;100.00;99130.69;5025172;28;20365;-86
2023/07/03 01:17:19;;;;;;;;;;;;;;;22.88;100.00;99131.13;5009461;28;19917;-87
2023/07/03 01:19:46;;;;;;;;;;;;;;;22.79;100.00;99135.22;5023592;28;20262;-88
2023/07/03 01:22:23;;;;;;;;;;;;;;;22.75;100.00;99142.91;5031815;28;20290;-86
2023/07/03 01:24:58;;;;;;;;;;;;;;;22.75;100.00;99142.09;5029185;28;20396;-88
2023/07/03 01:27:26;;;;;;;;;;;;;;;22.74;100.00;99143.16;5026297;28;20598;-88
2023/07/03 01:29:52;;;;;;;;;;;;;;;22.62;100.00;99143.09;5029063;28;19924;-87
2023/07/03 01:32:22;;;;;;;;;;;;;;;22.58;100.00;99143.78;5025961;28;19924;-86
2023/07/03 01:34:48;;;;;;;;;;;;;;;22.52;100.00;99147.38;5029242;28;19917;-87
2023/07/03 01:37:14;;;;;;;;;;;;;;;22.50;100.00;99154.88;5025875;28;19944;-86
2023/07/03 01:39:43;;;;;;;;;;;;;;;22.39;100.00;99153.78;5024637;28;19924;-86
2023/07/03 01:42:10;;;;;;;;;;;;;;;22.30;100.00;99153.28;5026164;28;19963;-85
2023/07/03 01:44:37;;;;;;;;;;;;;;;22.25;100.00;99158.53;5012043;28;19924;-87
2023/07/03 01:47:07;;;;;;;;;;;;;;;22.20;100.00;99161.09;5025149;28;19917;-87
2023/07/03 01:49:32;;;;;;;;;;;;;;;22.17;100.00;99164.22;5025167;28;19921;-87
2023/07/03 01:52:24;;;;;;;;;;;;;;;22.15;100.00;99165.50;5027177;28;19918;-86
2023/07/03 01:54:49;;;;;;;;;;;;;;;22.02;100.00;99159.25;5025950;28;19917;-87
2023/07/03 01:57:19;;;;;;;;;;;;;;;21.97;100.00;99161.78;5022646;28;19917;-86
2023/07/03 01:59:46;;;;;;;;;;;;;;;21.93;100.00;99155.19;5024951;28;19960;-87
2023/07/03 02:02:15;;;;;;;;;;;;;;;21.89;100.00;99153.19;5032029;28;20337;-87
2023/07/03 02:04:42;;;;;;;;;;;;;;;21.35;100.00;99156.66;5030080;28;19921;-86
2023/07/03 02:07:08;;;;;;;;;;;;;;;20.94;100.00;99154.53;5027522;28;19913;-85
2023/07/03 02:09:34;;;;;;;;;;;;;;;20.95;100.00;99148.97;5029977;28;19925;-86
2023/07/03 02:12:03;;;;;;;;;;;;;;;20.87;100.00;99143.84;5023553;28;19948;-88
2023/07/03 02:14:29;;;;;;;;;;;;;;;21.02;100.00;99146.22;5043992;28;19970;-88
2023/07/03 02:16:55;;;;;;;;;;;;;;;21.06;100.00;99142.06;5031607;28;19925;-86
2023/07/03 02:19:28;;;;;;;;;;;;;;;20.92;100.00;99146.69;5026646;28;20285;-86
2023/07/03 02:21:54;;;;;;;;;;;;;;;21.04;100.00;99154.84;5022271;28;20358;-87
2023/07/03 02:24:19;;;;;;;;;;;;;;;21.09;100.00;99141.59;5024301;28;20352;-86
2023/07/03 02:26:44;;;;;;;;;;;;;;;21.16;100.00;99145.09;5028537;28;20032;-86
2023/07/03 02:29:10;;;;;;;;;;;;;;;21.18;100.00;99146.50;5029627;28;19923;-86
2023/07/03 02:31:35;;;;;;;;;;;;;;;21.23;100.00;99149.34;5028926;28;20328;-86
2023/07/03 02:34:01;;;;;;;;;;;;;;;21.26;100.00;99142.72;5019434;28;19923;-87
2023/07/03 02:36:29;;;;;;;;;;;;;;;21.30;100.00;99148.47;5026651;28;20333;-87
2023/07/03 02:38:54;;;;;;;;;;;;;;;21.32;100.00;99141.84;5027063;28;19921;-86
2023/07/03 02:41:22;;;;;;;;;;;;;;;21.37;100.00;99139.31;5027622;28;19940;-86
2023/07/03 02:43:48;;;;;;;;;;;;;;;21.37;100.00;99150.06;5028670;28;19923;-86
2023/07/03 02:46:13;;;;;;;;;;;;;;;21.32;100.00;99141.84;5029184;28;20004;-86
2023/07/03 02:48:39;;;;;;;;;;;;;;;21.32;100.00;99144.53;5023851;28;19925;-84
2023/07/03 02:51:05;;;;;;;;;;;;;;;21.32;100.00;99152.59;5028840;28;19924;-86
2023/07/03 02:53:31;;;;;;;;;;;;;;;21.33;100.00;99143.47;5024921;28;19974;-87
2023/07/03 02:56:04;;;;;;;;;;;;;;;21.35;100.00;99149.44;5026292;28;20412;-88
2023/07/03 02:58:29;;;;;;;;;;;;;;;21.35;100.00;99160.19;5024266;28;20058;-87
2023/07/03 03:00:54;;;;;;;;;;;;;;;21.32;100.00;99152.59;5025089;28;20015;-87
2023/07/03 03:03:20;;;;;;;;;;;;;;;21.27;100.00;99155.09;5027661;28;19986;-86
2023/07/03 03:05:45;;;;;;;;;;;;;;;21.29;100.00;99153.00;5026772;28;19917;-87
2023/07/03 03:08:11;;;;;;;;;;;;;;;21.21;100.00;99156.78;5021601;28;20368;-88
2023/07/03 03:10:37;;;;;;;;;;;;;;;21.22;100.00;99157.63;5013816;28;19978;-87
2023/07/03 03:13:02;;;;;;;;;;;;;;;21.22;100.00;99157.63;5025742;28;19924;-86
2023/07/03 03:15:29;;;;;;;;;;;;;;;21.24;100.00;99166.28;5029425;28;19995;-87
2023/07/03 03:17:54;;;;;;;;;;;;;;;21.25;100.00;99167.94;5008023;28;20277;-86
2023/07/03 03:20:19;;;;;;;;;;;;;;;21.24;100.00;99161.72;5024368;28;19917;-88
2023/07/03 03:22:45;;;;;;;;;;;;;;;21.27;100.00;99160.44;5021587;28;19963;-86
2023/07/03 03:25:10;;;;;;;;;;;;;;;21.26;100.00;99156.16;5028781;28;19940;-86
2023/07/03 03:27:35;;;;;;;;;;;;;;;21.32;100.00;99163.31;5025807;28;19913;-88
2023/07/03 03:30:01;;;;;;;;;;;;;;;21.35;100.00;99151.31;5045882;28;20008;-86
2023/07/03 03:32:28;;;;;;;;;;;;;;;21.35;100.00;99152.13;5043317;28;19948;-87
2023/07/03 03:34:53;;;;;;;;;;;;;;;21.35;100.00;99152.13;5040618;28;19944;-87
2023/07/03 03:37:19;;;;;;;;;;;;;;;21.34;100.00;99150.47;5047378;28;19985;-86
2023/07/03 03:39:44;;;;;;;;;;;;;;;21.37;100.00;99150.06;5051275;28;19928;-85
2023/07/03 03:42:10;;;;;;;;;;;;;;;21.39;100.00;99147.94;5034808;28;19917;-85
2023/07/03 03:44:36;;;;;;;;;;;;;;;21.36;100.00;99150.25;5027324;28;19925;-88
2023/07/03 03:47:02;;;;;;;;;;;;;;;21.26;100.00;99153.47;5022014;28;19920;-87
2023/07/03 03:49:28;;;;;;;;;;;;;;;21.26;100.00;99148.09;5028638;28;20018;-87
2023/07/03 03:51:54;;;;;;;;;;;;;;;21.30;100.00;99154.66;5023236;28;20027;-87
2023/07/03 03:54:21;;;;;;;;;;;;;;;21.29;100.00;99160.25;5024850;28;19958;-87
2023/07/03 03:56:46;;;;;;;;;;;;;;;21.14;100.00;99152.53;5021182;28;20320;-88
2023/07/03 03:59:12;;;;;;;;;;;;;;;20.81;100.00;99167.00;5024654;28;20249;-85
2023/07/03 04:01:38;;;;;;;;;;;;;;;20.88;100.00;99160.78;5020962;28;19921;-87
2023/07/03 04:04:04;;;;;;;;;;;;;;;20.92;100.00;99161.97;5027012;28;19944;-86
2023/07/03 04:06:30;;;;;;;;;;;;;;;20.90;100.00;99164.06;5025332;28;19921;-87
2023/07/03 04:08:58;;;;;;;;;;;;;;;20.71;100.00;99166.69;5033154;28;19917;-87
2023/07/03 04:11:28;;;;;;;;;;;;;;;20.69;100.00;99168.75;5026466;28;19917;-89
2023/07/03 04:13:53;;;;;;;;;;;;;;;20.67;100.00;99176.22;5029898;28;19917;-87
2023/07/03 04:16:19;;;;;;;;;;;;;;;20.68;100.00;99177.00;5028671;28;20004;-86
2023/07/03 04:18:44;;;;;;;;;;;;;;;20.62;100.00;99175.19;5028048;28;20293;-84
2023/07/03 04:21:09;;;;;;;;;;;;;;;20.57;100.00;99175.84;5032371;28;19924;-85
2023/07/03 04:23:35;;;;;;;;;;;;;;;20.52;100.00;99178.34;5032676;28;20389;-87
2023/07/03 04:26:02;;;;;;;;;;;;;;;20.36;100.00;99184.22;5027777;28;19925;-87
2023/07/03 04:28:27;;;;;;;;;;;;;;;20.18;100.00;99186.75;5029510;28;20056;-87
2023/07/03 04:30:53;;;;;;;;;;;;;;;20.26;100.00;99183.84;5026929;28;19991;-88
2023/07/03 04:33:18;;;;;;;6.15;3.20;;;;;;;20.36;100.00;99184.22;5029416;28;19917;-86
2023/07/03 04:35:46;;;;;;;4.18;3.17;;;;;;;20.46;100.00;99189.94;5029085;28;20033;-87
2023/07/03 04:38:12;;;;;;;7.00;3.65;;;;;;;20.50;100.00;99195.69;5030179;28;20513;-88
2023/07/03 04:40:39;;;;;;;6.32;3.30;;;;;;;20.28;100.00;99197.84;5034730;28;20033;-88
2023/07/03 04:43:08;;;;;;;3.70;3.05;;;;;;;20.20;100.00;99203.44;5049597;28;20053;-87
2023/07/03 04:45:40;;;;;;;5.93;3.15;;;;;;;20.15;100.00;99208.59;5045176;28;20044;-88
2023/07/03 04:48:06;;;;;;;5.03;3.25;;;;;;;20.11;100.00;99207.38;5032491;28;20097;-88
2023/07/03 04:50:32;;;;;;;7.68;3.10;;;;;;;20.06;100.00;99204.53;5047901;23;20139;-79
2023/07/03 04:52:58;;;;;;;7.53;3.75;;;;;;;20.00;100.00;99207.03;5028364;28;20561;-80
2023/07/03 04:55:24;;;;;;;6.82;3.83;;;;;;;20.09;100.00;99202.25;5028302;28;20087;-78
2023/07/03 04:57:50;;;;;;;4.05;2.97;;;;;;;20.18;100.00;99200.16;5028870;28;20045;-78
2023/07/03 05:00:18;;;;;;;4.80;2.90;;;;;;;20.33;100.00;99206.91;5027795;28;20030;-79
2023/07/03 05:02:44;;;;;;;;;;;;;;;20.45;100.00;99209.72;5028697;28;19920;-78
2023/07/03 05:05:13;;;;;;;;;;;;;;;20.59;100.00;99207.81;5036893;28;20011;-78
2023/07/03 05:07:38;;;;;;;;;;;;;;;20.73;100.00;99210.19;5026907;28;19921;-78
2023/07/03 05:10:04;;;;;;;;;;;;;;;20.85;100.00;99211.13;5029858;28;19917;-78
2023/07/03 05:12:30;;;;;;;;;;;;;;;20.99;100.00;99202.97;5047425;28;20426;-78
2023/07/03 05:14:56;;;;;;;;;;;;;;;21.08;100.00;99209.72;5028284;28;20051;-78
2023/07/03 05:17:22;;;;;;;;;;;;;;;21.14;100.00;99215.06;5028953;28;20620;-79
2023/07/03 05:19:48;;;;;;;;;;;;;;;21.23;100.00;99212.94;5030470;28;19916;-78
2023/07/03 05:22:13;;;;;;;;;;;;;;;21.36;100.00;99212.81;5030774;28;19923;-79
2023/07/03 05:24:38;;;;;;;;;;;;;;;21.46;100.00;99206.94;5029386;28;19925;-80
2023/07/03 05:27:04;;;;;;;;;;;;;;;21.54;100.00;99215.53;5025975;28;19968;-79
2023/07/03 05:29:31;;;;;;;;;;;;;;;21.63;100.00;99208.81;5024387;28;19928;-79
2023/07/03 05:31:56;;;;;;;;;;;;;;;21.69;100.00;99215.16;5029296;28;19917;-79
2023/07/03 05:34:22;;;;;;;;;;;;;;;21.77;100.00;99214.06;5024862;28;20032;-79
2023/07/03 05:36:47;;;;;;;;;;;;;;;21.83;100.00;99210.50;5024103;28;20011;-79
2023/07/03 05:39:13;;;;;;;;;;;;;;;21.88;100.00;99218.69;5029087;28;19921;-79
2023/07/03 05:41:38;;;;;;;;;;;;;;;21.91;100.00;99221.75;5024888;28;19925;-79
2023/07/03 05:44:04;;;;;;;;;;;;;;;21.96;100.00;99226.50;5027897;28;20011;-79
2023/07/03 05:46:29;;;;;;;;;;;;;;;22.00;100.00;99236.56;5028094;28;19928;-80
2023/07/03 05:48:55;;;;;;;;;;;;;;;22.07;100.00;99225.75;5025472;28;19917;-80
2023/07/03 05:51:20;;;;;;;;;;;;;;;22.15;100.00;99233.47;5032844;28;19921;-83
2023/07/03 05:53:45;;;;;;;;;;;;;;;22.25;100.00;99233.78;5028958;28;20004;-83
2023/07/03 05:56:11;;;;;;;;;;;;;;;22.35;100.00;99239.44;5025960;28;19947;-83
2023/07/03 05:58:36;;;;;;;;;;;;;;;22.45;100.00;99237.03;5042856;28;19918;-83
2023/07/03 06:01:03;;;;;;;;;;;;;;;22.55;100.00;99235.69;5024475;28;20011;-85
2023/07/03 06:03:31;;;;;;;;;;;;;;;22.65;100.00;99246.72;5027423;28;20338;-83
2023/07/03 06:05:57;;;;;;;;;;;;;;;22.75;100.00;99249.69;5023435;28;20265;-88
2023/07/03 06:08:24;;;;;;;;;;;;;;;22.77;100.00;99243.06;5029761;28;20305;-85
2023/07/03 06:10:49;;;;;;;;;;;;;;;22.85;100.00;99249.97;5028432;28;19921;-88
2023/07/03 06:13:15;;;;;;;;;;;;;;;22.87;100.00;99253.25;5029081;28;19917;-86
2023/07/03 06:15:41;;;;;;;;;;;;;;;22.92;100.00;99250.69;5021595;28;19968;-87
2023/07/03 06:18:07;;;;;;;;;;;;;;;22.97;100.00;99253.53;5028129;28;20320;-86
2023/07/03 06:20:33;;;;;;;;;;;;;;;23.00;100.00;99255.75;5029169;28;19925;-83
2023/07/03 06:23:01;;;;;;;;;;;;;;;23.08;100.00;99266.19;5032476;28;19939;-84
2023/07/03 06:25:29;;;;;;;;;;;;;;;23.10;100.00;99258.69;5020315;28;20052;-84
2023/07/03 06:27:54;;;;;;;;;;;;;;;23.08;100.00;99266.19;5026503;28;19916;-84
2023/07/03 06:30:20;;;;;;;;;;;;;;;23.08;100.00;99260.81;5025335;28;19928;-85
2023/07/03 06:32:45;;;;;;;;;;;;;;;23.08;100.00;99266.19;5032988;28;19940;-84
2023/07/03 06:35:11;;;;;;;;;;;;;;;23.08;100.00;99266.19;5025510;28;19918;-81
2023/07/03 06:37:36;;;;;;;;;;;;;;;23.08;100.00;99266.19;5030441;28;19917;-83
2023/07/03 06:40:03;;;;;;;;;;;;;;;23.10;100.00;99264.06;5025146;28;19920;-84
2023/07/03 06:42:29;;;;;;;;;;;;;;;23.12;100.00;99261.97;5026152;28;20322;-83
2023/07/03 06:44:59;;;;;;;;;;;;;;;23.15;100.00;99261.50;5027568;28;20386;-83
2023/07/03 06:47:24;;;;;;;;;;;;;;;23.18;100.00;99266.44;5024862;28;20014;-82
2023/07/03 06:49:50;;;;;;;;;;;;;;;23.23;100.00;99269.25;5028925;28;19925;-83
2023/07/03 06:52:15;;;;;;;;;;;;;;;23.27;100.00;99270.41;5029590;28;19917;-82
2023/07/03 06:54:41;;;;;;;;;;;;;;;23.31;100.00;99268.09;5028695;28;20016;-79
2023/07/03 06:57:06;;;;;;;;;;;;;;;23.34;100.00;99266.81;5029557;28;19924;-83
2023/07/03 06:59:31;;;;;;;;;;;;;;;23.37;100.00;99267.19;5027425;28;19917;-84
2023/07/03 07:01:57;;;;;;;;;;;;;;;23.42;100.00;99258.41;5024719;28;20428;-81
2023/07/03 07:04:22;;;;;;;;;;;;;;;23.51;100.00;99254.31;5029207;28;19951;-85
2023/07/03 07:06:48;;;;;;;;;;;;;;;23.58;100.00;99263.13;5007630;28;19920;-82
2023/07/03 07:09:14;;;;;;;;;;;;;;;23.66;100.00;99252.81;5026047;28;19918;-82
2023/07/03 07:11:40;;;;;;;;;;;;;;;23.73;100.00;99258.09;5028988;28;19982;-82
2023/07/03 07:14:05;;;;;;;;;;;;;;;23.75;100.00;99250.56;5051224;28;20023;-81
2023/07/03 07:16:34;;;;;;;;;;;;;;;23.78;100.00;99255.50;5038658;28;19967;-82
2023/07/03 07:19:01;;;;;;;;;;;;;;;23.80;100.00;99255.28;5034722;28;19917;-82
2023/07/03 07:21:28;;;;;;;;;;;;;;;23.88;100.00;99244.13;5042593;28;20349;-83
2023/07/03 07:23:55;;;;;;;;;;;;;;;23.94;100.00;99254.78;5037107;28;20309;-81
2023/07/03 07:26:21;;;;;;;;;;;;;;;24.01;100.00;99255.47;5030448;28;19921;-82
2023/07/03 07:28:46;;;;;;;;;;;;;;;24.09;100.00;99257.78;5039763;28;20330;-83
2023/07/03 07:31:22;;;;;;;;;;;;;;;24.14;100.00;99258.97;5044507;28;19924;-82
2023/07/03 07:33:47;;;;;;;;;;;;;;;24.23;100.00;99262.97;5039468;28;19917;-82
2023/07/03 07:36:14;;;;;;;;;;;;;;;24.30;100.00;99263.66;5058032;28;19995;-84
2023/07/03 07:38:39;;;;;;;;;;;;;;;24.36;100.00;99268.09;5033574;28;19932;-83
2023/07/03 07:41:05;;;;;;;;;;;;;;;24.38;100.00;99264.13;5039809;28;19917;-82
2023/07/03 07:43:30;;;;;;;;;;;;;;;24.41;100.00;99265.50;5037572;28;19937;-82
2023/07/03 07:45:56;;;;;;;;;;;;;;;24.43;100.00;99263.38;5034216;28;20016;-81
2023/07/03 07:48:21;;;;;;;;;;;;;;;24.51;100.00;99263.00;5040152;28;19924;-81
2023/07/03 07:50:47;;;;;;;;;;;;;;;24.58;100.00;99260.97;5047845;28;19948;-84
2023/07/03 07:53:13;;;;;;;;;;;;;;;24.65;100.00;99261.66;5046839;28;19917;-82
2023/07/03 07:55:38;;;;;;;;;;;;;;;24.73;100.00;99260.47;5040280;28;19914;-83
2023/07/03 07:58:04;;;;;;;;;;;;;;;24.82;100.00;99262.53;5050389;28;19987;-83
2023/07/03 08:00:29;;;;;;;;;;;;;;;24.91;100.00;99262.16;5048820;28;19916;-83
2023/07/03 08:02:55;;;;;;;;;;;;;;;24.90;100.00;99263.22;5041939;28;19917;-82
2023/07/03 08:05:20;;;;;;;;;;;;;;;24.92;100.00;99255.72;5059953;28;19917;-80
2023/07/03 08:07:46;;;;;;;;;;;;;;;24.97;100.00;99253.94;5036462;28;19913;-82
2023/07/03 08:10:12;;;;;;;;;;;;;;;25.03;100.00;99254.84;5040374;28;19917;-84
2023/07/03 08:12:37;;;;;;;;;;;;;;;25.06;100.00;99251.63;5041979;28;19928;-84
2023/07/03 08:15:03;;;;;;;;;;;;;;;25.10;100.00;99258.16;5041164;28;20241;-82
2023/07/03 08:17:29;;;;;;;;;;;;;;;25.13;100.00;99257.69;5041726;28;19928;-83
2023/07/03 08:19:56;;;;;;;;;;;;;;;25.10;100.00;99258.16;5042133;28;19913;-82
2023/07/03 08:22:22;;;;;;;;;;;;;;;25.16;100.00;99249.09;5043369;28;19936;-83
2023/07/03 08:24:47;;;;;;;;;;;;;;;25.25;100.00;99261.16;5051803;28;19917;-83
2023/07/03 08:27:12;;;;;;;;;;;;;;;25.29;100.00;99251.47;5043846;28;19913;-83
2023/07/03 08:29:38;;;;;;;;;;;;;;;25.34;100.00;99248.84;5051761;28;19952;-84
2023/07/03 08:32:05;;;;;;;;;;;;;;;25.40;100.00;99258.69;5048621;28;19913;-83
2023/07/03 08:34:31;;;;;;;;;;;;;;;25.48;100.00;99255.56;5034509;28;19967;-84
2023/07/03 08:36:56;;;;;;;;;;;;;;;25.55;100.00;99266.22;5036219;28;19917;-85
2023/07/03 08:39:22;;;;;;;;;;;;;;;25.58;100.00;99260.34;5033194;28;19913;-85
2023/07/03 08:41:55;;;;;;;;;;;;;;;25.58;100.00;99258.47;5038927;28;19925;-85
2023/07/03 08:44:21;;;;;;;;;;;;;;;25.65;100.00;99253.72;5035638;28;19924;-85
2023/07/03 08:46:47;;;;;;;;;;;;;;;25.72;100.00;99250.84;5035256;28;19985;-85
2023/07/03 08:49:14;;;;;;;;;;;;;;;25.79;100.00;99256.06;5038511;28;19917;-85
2023/07/03 08:51:40;;;;;;;;;;;;;;;25.83;100.00;99259.91;5038406;28;20281;-86
2023/07/03 08:54:11;;;;;;;;;;;;;;;25.88;100.00;99251.84;5038928;28;19916;-85
2023/07/03 08:56:36;;;;;;;;;;;;;;;25.96;100.00;99262.25;5036031;28;20288;-85
2023/07/03 08:59:03;;;;;;;;;;;;;;;26.01;100.00;99254.22;5035685;28;19917;-85
2023/07/03 09:01:47;;;;;;;;;;;;;;;26.07;100.00;99256.72;5030566;28;20031;-86
2023/07/03 09:04:33;;;;;;;;;;;;;;;26.15;100.00;99250.06;5036844;28;19916;-83
2023/07/03 09:07:01;;;;;;;;;;;;;;;26.23;100.00;99249.66;5031553;28;20351;-84
2023/07/03 09:09:56;;;;;;;;;;;;;;;26.29;100.00;99254.06;5030799;28;20296;-86
2023/07/03 09:12:24;;;;;;;;;;;;;;;26.37;100.00;99248.22;5026111;28;20329;-86
2023/07/03 09:14:54;;;;;;;;;;;;;;;26.40;100.00;99250.41;5034257;28;19921;-84
2023/07/03 09:17:21;;;;;;;;;;;;;;;26.43;100.00;99252.63;5035355;28;20384;-85
2023/07/03 09:19:49;;;;;;;;;;;;;;;26.46;100.00;99252.09;5038954;28;20444;-86
2023/07/03 09:22:20;;;;;;;;;;;;;;;26.48;100.00;99252.66;5036668;28;19975;-87
2023/07/03 09:24:45;;;;;;;;;;;;;;;26.48;100.00;99249.97;5033951;28;19924;-86
2023/07/03 09:27:22;;;;;;;;;;;;;;;26.46;100.00;99240.44;5029961;28;19929;-86
2023/07/03 09:29:48;;;;;;;;;;;;;;;26.53;100.00;99251.09;5035495;28;19917;-86
2023/07/03 09:32:27;;;;;;;;;;;;;;;26.60;100.00;99251.72;5031535;28;20000;-86
2023/07/03 09:34:58;;;;;;;;;;;;;;;26.69;100.00;99242.06;5033667;28;19920;-86
2023/07/03 09:37:23;;;;;;;;;;;;;;;26.72;100.00;99247.78;5029343;28;19924;-85
2023/07/03 09:39:52;;;;;;;;;;;;;;;26.74;100.00;99248.34;5037733;28;19921;-86
2023/07/03 09:42:19;;;;;;;;;;;;;;;26.74;100.00;99247.53;5032507;28;19917;-86
2023/07/03 09:44:46;;;;;;;;;;;;;;;26.72;100.00;99255.09;5031475;28;19924;-86
2023/07/03 09:47:22;;;;;;;;;;;;;;;26.76;100.00;99245.38;5034399;28;19971;-87
2023/07/03 09:49:47;;;;;;;;;;;;;;;26.78;100.00;99249.47;5037794;28;20355;-86
2023/07/03 09:52:13;;;;;;;;;;;;;;;26.84;100.00;99244.94;5035347;28;19960;-86
2023/07/03 09:54:42;;;;;;;;;;;;;;;26.91;100.00;99244.75;5038530;28;19917;-86
2023/07/03 09:57:17;;;;;;;;;;;;;;;26.95;100.00;99246.69;5050853;28;19975;-86
2023/07/03 09:59:43;;;;;;;;;;;;;;;27.02;100.00;99247.31;5038391;28;19917;-86
2023/07/03 10:02:11;;;;;;;;;;;;;;;27.14;100.00;99245.25;5038228;28;19917;-86
2023/07/03 10:04:42;;;;;;;;;;;;;;;27.20;100.00;99241.50;5039797;28;19924;-87
2023/07/03 10:07:08;;;;;;;;;;;;;;;27.21;100.00;99237.72;5039467;28;19917;-86
2023/07/03 10:09:34;;;;;;;;;;;;;;;27.24;100.00;99234.50;5040785;28;19960;-86
2023/07/03 10:12:03;;;;;;;;;;;;;;;27.30;100.00;99228.03;5032436;28;19925;-85
2023/07/03 10:14:43;;;;;;;;;;;;;;;27.42;100.00;99232.44;5025390;28;19916;-84
2023/07/03 10:17:12;;;;;;;;;;;;;;;27.54;100.00;99233.13;5027665;28;19917;-85
2023/07/03 10:19:43;;;;;;;;;;;;;;;27.62;100.00;99232.63;5029169;28;20229;-86
2023/07/03 10:22:09;;;;;;;;;;;;;;;27.68;100.00;99235.13;5030254;28;20027;-86
2023/07/03 10:24:35;;;;;;;;;;;;;;;27.77;100.00;99240.84;5029161;28;20059;-86
2023/07/03 10:27:02;;;;;;;;;;;;;;;27.84;100.00;99241.44;5027155;28;19970;-85
2023/07/03 10:29:37;;;;;;;;;;;;;;;27.91;100.00;99242.03;5028617;28;19956;-85
2023/07/03 10:32:04;;;;;;;;;;;;;;;27.90;100.00;99234.97;5023010;28;20016;-86
2023/07/03 10:34:37;;;;;;;;;;;;;;;27.80;100.00;99240.34;5027519;28;19995;-85
2023/07/03 10:37:05;;;;;;;;;;;;;;;27.91;100.00;99236.59;5042920;28;19923;-86
2023/07/03 10:39:43;;;;;;;;;;;;;;;27.96;100.00;99233.91;5027380;28;19924;-86
2023/07/03 10:42:19;;;;;;;;;;;;;;;28.02;100.00;99238.28;5023870;28;19924;-85
2023/07/03 10:44:45;;;;;;;;;;;;;;;28.02;100.00;99242.88;5027301;28;20348;-86
2023/07/03 10:47:21;;;;;;;;;;;;;;;27.96;100.00;99242.06;5025272;28;19939;-85
2023/07/03 10:49:46;;;;;;;;;;;;;;;27.96;100.00;99235.81;5026907;28;19946;-86
2023/07/03 10:52:38;;;;;;;;;;;;;;;27.98;100.00;99234.44;5029151;28;19917;-86
2023/07/03 10:55:10;;;;;;;;;;;;;;;28.05;100.00;99237.75;5025581;28;20420;-86
2023/07/03 10:57:44;;;;;;;;;;;;;;;28.14;100.00;99240.00;5045730;28;20410;-85
2023/07/03 11:00:13;;;;;;;;;;;;;;;28.25;100.00;99242.47;5028429;28;20420;-86
2023/07/03 11:02:43;;;;;;;;;;;;;;;28.32;100.00;99236.81;5027143;28;19971;-86
2023/07/03 11:05:34;;;;;;;;;;;;;;;28.42;100.00;99239.56;5025395;28;19946;-86
2023/07/03 11:07:59;;;;;;;;;;;;;;;28.51;100.00;99235.25;5025158;28;20388;-86
2023/07/03 11:10:28;;;;;;;;;;;;;;;28.60;99.10;99228.22;5029928;28;19917;-86
2023/07/03 11:12:53;;;;;;;;;;;;;;;28.66;98.22;99229.84;5025197;28;19917;-86
2023/07/03 11:15:30;;;;;;;;;;;;;;;28.69;97.38;99220.34;5025838;28;19917;-86
2023/07/03 11:18:15;;;;;;;;;;;;;;;28.67;97.97;99225.25;5032617;28;19959;-85
2023/07/03 11:20:40;;;;;;;;;;;;;;;28.66;98.64;99213.56;5037504;28;20377;-85
2023/07/03 11:23:23;;;;;;;;;;;;;;;28.61;96.59;99216.28;5030133;28;19928;-85
2023/07/03 11:25:57;;;;;;;;;;;;;;;28.61;97.17;99219.00;5028434;28;19925;-88
2023/07/03 11:28:29;;;;;;;;;;;;;;;28.61;97.59;99213.56;5042714;28;19919;-85
2023/07/03 11:30:56;;;;;;;;;;;;;;;28.56;95.94;99210.84;5045264;28;19917;-87
2023/07/03 11:33:22;;;;;;;;;;;;;;;28.60;96.92;99203.78;5056492;28;19913;-85
2023/07/03 11:35:54;;;;;;;;;;;;;;;28.70;96.59;99211.94;5058707;28;19917;-85
2023/07/03 11:38:20;;;;;;;;;;;;;;;28.78;95.27;99208.72;5044678;28;19937;-85
2023/07/03 11:40:49;;;;;;;;;;;;;;;28.84;95.22;99207.66;5041916;28;19917;-84
2023/07/03 11:43:15;;;;;;;;;;;;;;;28.95;95.96;99205.75;5034835;28;19924;-86
2023/07/03 11:45:48;;;;;;;;;;;;;;;29.13;96.10;99198.97;5033683;28;19917;-86
2023/07/03 11:48:42;;;;;;;;;;;;;;;29.31;94.78;99190.25;5031285;28;19974;-87
2023/07/03 11:51:10;;;;;;;;;;;;;;;29.41;91.21;99198.41;5034628;28;20365;-84
2023/07/03 11:53:49;;;;;;;;;;;;;;;29.38;91.53;99196.28;5034170;28;19975;-83
2023/07/03 11:56:34;;;;;;;;;;;;;;;29.42;91.25;99197.34;5029598;28;19926;-86
2023/07/03 11:59:04;;;;;;;;;;;;;;;29.48;92.01;99196.25;5045222;28;19905;-87
2023/07/03 12:01:30;;;;;;;;;;;;;;;29.44;92.73;99188.91;5030832;28;20481;-87
2023/07/03 12:04:02;;;;;;;;;;;;;;;29.50;92.88;99187.81;5035128;28;19968;-86
2023/07/03 12:06:39;;;;;;;;;;;;;;;29.65;92.85;99180.44;5031825;28;19925;-90
2023/07/03 12:09:20;;;;;;;;;;;;;;;29.81;91.24;99188.56;5023567;28;20445;-89
2023/07/03 12:12:07;;;;;;;;;;;;;;;29.97;91.13;99188.25;5049812;28;20412;-88
2023/07/03 12:14:47;;;;;;;;;;;;;;;30.18;89.70;99186.25;5036446;28;20381;-88
2023/07/03 12:17:15;;;;;;;;;;;;;;;30.36;87.89;99182.91;5050071;28;19965;-88
2023/07/03 12:19:41;;;;;;;;;;;;;;;30.52;85.72;99187.19;5056713;28;19916;-88
2023/07/03 12:22:06;;;;;;;;;;;;;;;30.68;85.95;99184.38;5040532;28;19940;-90
2023/07/03 12:24:32;;;;;;;;;;;;;;;30.87;85.02;99185.28;5043004;28;19936;-89
2023/07/03 12:27:00;;;;;;;;;;;;;;;30.82;84.97;99177.97;5046395;28;19913;-82
2023/07/03 12:29:26;;;;;;;;;;;;;;;30.73;85.02;99168.81;5043281;28;19924;-83
2023/07/03 12:32:05;;;;;;;;;;;;;;;30.57;83.90;99170.00;5047343;28;19925;-86
2023/07/03 12:34:31;;;;;;;;;;;;;;;30.70;85.15;99168.53;5035390;28;20373;-83
2023/07/03 12:37:02;;;;;;;;;;;;;;;30.98;84.41;99165.06;5034837;28;20436;-82
2023/07/03 12:39:28;;;;;;;;;;;;;;;31.14;81.62;99173.94;5027956;28;20285;-84